Terminal Aerodrome Forecast
Issued by NWS Upton, NY

Home | Current Version | Previous Version | Text Only | Print | Product List | Glossary On
Versions: 1 2 3 4 5 6 7 8 9 10 11 12 13 14 15 16 17 18 19 20 21 22 23 24 25 26 27 28 29 30 31 32
000
FTUS41 KOKX 301126
TAFJFK
TAF
KJFK 301126Z 3012/0118 05008KT P6SM BKN050
     FM301600 12009KT P6SM SCT250
     FM301800 15010KT P6SM SCT250
     FM302000 17012KT P6SM SCT250
     FM010300 13006KT P6SM SCT080 BKN120
     FM011200 11009KT 6SM -RA BKN040
     FM011600 10012KT 5SM -RA BR BKN020=

USA.gov is the U.S. government's official web portal to all federal, state and local government web resources and services.